To NAV CANADA Home Page Login to a new session Search on AWWS site Disclaimer Vers la page française équivalente Tips FAQ What's new on the site To the Forecasts and Observations / NOTAM section To "File a Flight Plan" website Publications and other links Update of the User's profile FIC Telephone Numbers My Weather Data Folder Route Weather Data Regional Weather Data Local Weather Data To the Forecasts and Observations / NOTAM section
Request Generated 04/24/2019 at 16:01:17 UTC . Weather information available at that time is displayed.

METAR/TAF

RESOLUTE BAY/NU    

METAR CYRB 241500Z 00000KT 15SM IC FEW090 M29/M32 A2990 RMK AC1 SLP138=
METAR CYRB 241400Z 33004KT 15SM IC FEW090 M28/M31 A2990 RMK AC1 SLP140=
METAR CYRB 241300Z 32005KT 15SM IC FEW090 M29/M32 A2991 RMK AC1 AC TR SLP142=

TAF CYRB 241144Z 2412/2512 34005KT P6SM SCT020 TEMPO 2412/2416 P6SM
-SN BKN020
FM241800 05010KT P6SM IC FEW020
RMK NXT FCST BY 241800Z=
Your time UTC time
Weather data provided by Environment Canada and NAV CANADA